createdAt,value
2023-02-28T00:00:41.419Z,5.57
2023-02-28T00:03:10.524Z,5.35
2023-02-28T00:05:39.693Z,5.95
2023-02-28T00:08:10.507Z,5.80
2023-02-28T00:10:40.541Z,5.63
2023-02-28T00:13:09.677Z,6.65
2023-02-28T00:15:39.544Z,6.57
2023-02-28T00:18:08.544Z,5.72
2023-02-28T00:20:40.111Z,5.97
2023-02-28T00:23:10.748Z,5.65
2023-02-28T00:25:39.886Z,5.82
2023-02-28T00:28:08.907Z,6.25
2023-02-28T00:30:38.182Z,6.57
2023-02-28T00:33:07.808Z,6.53
2023-02-28T00:35:37.019Z,6.18
2023-02-28T00:38:06.677Z,6.18
2023-02-28T00:40:39.119Z,6.30
2023-02-28T00:43:08.204Z,6.30
2023-02-28T00:45:37.199Z,6.20
2023-02-28T00:48:07.235Z,6.47
2023-02-28T00:50:36.287Z,6.30
2023-02-28T00:53:05.273Z,5.75
2023-02-28T00:55:34.305Z,5.80
2023-02-28T00:58:08.628Z,6.65
2023-02-28T01:00:37.609Z,6.95
2023-02-28T01:03:06.617Z,6.88
2023-02-28T01:05:35.682Z,7.55
2023-02-28T01:08:04.954Z,7.65
2023-02-28T01:10:34.020Z,7.10
2023-02-28T01:13:03.118Z,6.55
2023-02-28T01:15:34.329Z,6.78
2023-02-28T01:18:03.387Z,6.25
2023-02-28T01:20:34.116Z,7.10
2023-02-28T01:23:04.229Z,6.95
2023-02-28T01:25:33.317Z,6.82
2023-02-28T01:28:02.342Z,7.00
2023-02-28T01:30:31.344Z,7.10
2023-02-28T01:33:02.249Z,6.90
2023-02-28T01:35:33.993Z,7.32
2023-02-28T01:38:21.023Z,6.65
2023-02-28T01:40:50.868Z,7.28
2023-02-28T01:43:25.232Z,6.75
2023-02-28T01:45:56.300Z,7.32
2023-02-28T01:48:30.532Z,6.30
2023-02-28T01:51:05.352Z,6.80
2023-02-28T01:53:39.355Z,6.60
2023-02-28T01:56:11.393Z,7.70
2023-02-28T01:58:40.665Z,6.88
2023-02-28T02:01:09.684Z,6.53
2023-02-28T02:03:40.402Z,6.80
2023-02-28T02:06:09.452Z,6.55
2023-02-28T02:08:40.382Z,6.47
2023-02-28T02:11:13.781Z,6.57
2023-02-28T02:14:22.509Z,7.00
2023-02-28T02:17:07.893Z,7.45
2023-02-28T02:20:46.781Z,7.53
2023-02-28T02:24:02.513Z,7.18
2023-02-28T02:27:12.065Z,7.47
2023-02-28T02:30:00.275Z,7.25
2023-02-28T02:33:20.695Z,7.50
2023-02-28T02:35:56.580Z,7.07
2023-02-28T02:38:35.853Z,6.43
2023-02-28T02:41:16.457Z,7.38
2023-02-28T02:43:52.212Z,6.90
2023-02-28T02:46:26.299Z,7.13
2023-02-28T02:48:58.913Z,7.47
2023-02-28T02:51:30.511Z,7.45
2023-02-28T02:54:04.344Z,7.88
2023-02-28T02:56:36.025Z,7.38
2023-02-28T02:59:10.999Z,7.85
2023-02-28T03:01:42.456Z,7.35
2023-02-28T03:04:16.175Z,7.47
2023-02-28T03:06:46.638Z,7.55
2023-02-28T03:09:15.846Z,7.82
2023-02-28T03:11:45.195Z,7.80
2023-02-28T03:14:35.760Z,8.20
2023-02-28T03:17:42.412Z,8.13
2023-02-28T03:20:24.089Z,8.10
2023-02-28T03:23:09.711Z,8.43
2023-02-28T03:25:49.622Z,8.18
2023-02-28T03:28:27.992Z,8.57
2023-02-28T03:31:03.551Z,8.85
2023-02-28T03:33:37.990Z,7.28
2023-02-28T03:36:13.426Z,8.07
2023-02-28T03:38:50.898Z,8.18
2023-02-28T03:41:24.500Z,8.98
2023-02-28T03:43:59.064Z,8.48
2023-02-28T03:46:33.370Z,8.48
2023-02-28T03:49:10.944Z,9.65
2023-02-28T03:51:42.957Z,8.15
2023-02-28T03:54:20.222Z,8.52
2023-02-28T03:56:56.301Z,8.32
2023-02-28T03:59:31.281Z,8.68
2023-02-28T04:02:00.720Z,8.98
2023-02-28T04:04:30.260Z,9.18
2023-02-28T04:07:05.424Z,9.10
2023-02-28T04:09:35.921Z,8.02
2023-02-28T04:12:05.309Z,10.18
2023-02-28T04:14:34.361Z,8.90
2023-02-28T04:17:03.333Z,8.45
2023-02-28T04:19:32.340Z,8.73
2023-02-28T04:22:01.410Z,8.38
2023-02-28T04:24:31.331Z,8.55
2023-02-28T04:27:01.727Z,8.98
2023-02-28T04:29:33.853Z,8.45
2023-02-28T04:32:04.208Z,8.60
2023-02-28T04:34:34.802Z,7.93
2023-02-28T04:37:13.177Z,8.30
2023-02-28T04:39:44.598Z,8.45
2023-02-28T04:42:15.601Z,8.82
2023-02-28T04:44:44.704Z,8.00
2023-02-28T04:47:13.682Z,8.73
2023-02-28T04:49:43.897Z,7.93
2023-02-28T04:52:14.283Z,8.02
2023-02-28T04:54:43.358Z,7.32
2023-02-28T04:57:12.355Z,7.75
2023-02-28T04:59:42.837Z,8.32
2023-02-28T05:02:11.886Z,8.40
2023-02-28T05:04:40.985Z,8.25
2023-02-28T05:07:10.756Z,8.93
2023-02-28T05:09:39.758Z,7.90
2023-02-28T05:12:10.725Z,9.07
2023-02-28T05:14:39.761Z,8.70
2023-02-28T05:17:11.381Z,8.70
2023-02-28T05:19:40.669Z,8.88
2023-02-28T05:22:16.454Z,8.07
2023-02-28T05:24:45.470Z,8.68
2023-02-28T05:27:14.574Z,8.93
2023-02-28T05:29:46.446Z,8.88
2023-02-28T05:32:17.703Z,9.02
2023-02-28T05:34:47.065Z,8.40
2023-02-28T05:37:17.332Z,9.18
2023-02-28T05:39:46.372Z,8.75
2023-02-28T05:42:17.769Z,10.25
2023-02-28T05:44:47.232Z,9.63
2023-02-28T05:47:17.944Z,9.10
2023-02-28T05:49:47.065Z,9.27
2023-02-28T05:52:16.885Z,8.90
2023-02-28T05:54:46.011Z,9.95
2023-02-28T05:57:23.989Z,9.20
2023-02-28T05:59:53.870Z,9.18
2023-02-28T06:02:24.237Z,9.23
2023-02-28T06:04:53.358Z,8.27
2023-02-28T06:07:23.509Z,8.32
2023-02-28T06:09:55.396Z,8.75
2023-02-28T06:12:24.579Z,9.10
2023-02-28T06:14:53.544Z,9.88
2023-02-28T06:17:26.357Z,9.55
2023-02-28T06:19:55.503Z,9.82
2023-02-28T06:22:24.506Z,9.57
2023-02-28T06:24:54.022Z,9.65
2023-02-28T06:27:23.142Z,9.45
2023-02-28T06:29:56.872Z,9.40
2023-02-28T06:32:27.514Z,10.15
2023-02-28T06:34:58.417Z,9.38
2023-02-28T06:37:28.168Z,9.85
2023-02-28T06:39:58.025Z,10.43
2023-02-28T06:42:29.871Z,9.55
2023-02-28T06:44:58.962Z,10.02
2023-02-28T06:47:29.593Z,9.75
2023-02-28T06:49:58.628Z,10.10
2023-02-28T06:52:27.607Z,10.20
2023-02-28T06:55:00.865Z,13.85
2023-02-28T06:57:31.997Z,13.63
2023-02-28T07:00:03.956Z,9.98
2023-02-28T07:02:34.330Z,11.00
2023-02-28T07:05:03.383Z,10.95
2023-02-28T07:07:33.330Z,11.73
2023-02-28T07:10:02.333Z,10.68
2023-02-28T07:12:31.392Z,11.07
2023-02-28T07:15:00.384Z,12.25
2023-02-28T07:17:29.365Z,11.02
2023-02-28T07:19:59.881Z,11.52
2023-02-28T07:22:29.615Z,11.35
2023-02-28T07:24:58.594Z,11.25
2023-02-28T07:27:27.635Z,12.02
2023-02-28T07:29:56.865Z,15.57
2023-02-28T07:32:25.989Z,13.98
2023-02-28T07:34:55.049Z,12.82
2023-02-28T07:37:25.408Z,11.40
2023-02-28T07:39:54.435Z,13.32
2023-02-28T07:42:26.121Z,11.95
2023-02-28T07:44:55.250Z,13.13
2023-02-28T07:47:25.493Z,11.55
2023-02-28T07:49:54.885Z,13.43
2023-02-28T07:52:25.552Z,13.02
2023-02-28T07:54:54.612Z,12.35
2023-02-28T07:57:23.584Z,13.10
2023-02-28T07:59:52.802Z,12.38
2023-02-28T08:02:21.838Z,11.40
2023-02-28T08:04:51.384Z,13.32
2023-02-28T08:07:20.845Z,12.65
2023-02-28T08:09:51.335Z,12.93
2023-02-28T08:12:20.330Z,13.20
2023-02-28T08:14:49.545Z,13.32
2023-02-28T08:17:18.922Z,12.55
2023-02-28T08:19:48.195Z,11.98
2023-02-28T08:22:17.322Z,13.13
2023-02-28T08:24:46.755Z,12.18
2023-02-28T08:27:17.268Z,12.48
2023-02-28T08:29:46.472Z,12.80
2023-02-28T08:32:28.920Z,11.73
2023-02-28T08:34:59.336Z,12.98
2023-02-28T08:37:28.380Z,12.63
2023-02-28T08:39:57.391Z,13.75
2023-02-28T08:42:27.941Z,14.00
2023-02-28T08:44:57.583Z,14.20
2023-02-28T08:47:26.551Z,13.95
2023-02-28T08:49:55.508Z,13.93
2023-02-28T08:52:24.636Z,13.07
2023-02-28T08:54:53.584Z,12.82
2023-02-28T08:57:22.578Z,13.43
2023-02-28T08:59:53.026Z,13.85
2023-02-28T09:02:22.010Z,13.65
2023-02-28T09:04:50.976Z,13.93
2023-02-28T09:07:20.030Z,13.50
2023-02-28T09:09:55.767Z,13.30
2023-02-28T09:12:25.735Z,13.25
2023-02-28T09:14:58.525Z,12.63
2023-02-28T09:17:30.622Z,12.57
2023-02-28T09:20:00.293Z,12.68
2023-02-28T09:22:29.272Z,12.43
2023-02-28T09:24:58.439Z,12.70
2023-02-28T09:27:27.521Z,13.38
2023-02-28T09:29:58.052Z,13.57
2023-02-28T09:32:27.264Z,12.63
2023-02-28T09:34:56.509Z,12.65
2023-02-28T09:37:27.549Z,12.57
2023-02-28T09:39:56.650Z,13.23
2023-02-28T09:42:33.390Z,13.48
2023-02-28T09:45:15.430Z,13.27
2023-02-28T09:47:48.724Z,13.75
2023-02-28T09:50:33.919Z,12.88
2023-02-28T09:53:12.477Z,14.02
2023-02-28T09:55:47.415Z,14.25
2023-02-28T09:58:22.873Z,14.95
2023-02-28T10:01:02.626Z,14.52
2023-02-28T10:03:37.827Z,15.25
2023-02-28T10:06:15.709Z,16.05
2023-02-28T10:08:54.356Z,58.78
2023-02-28T10:11:25.034Z,20.90
2023-02-28T10:14:02.540Z,15.50
2023-02-28T10:16:38.951Z,28.45
2023-02-28T10:19:15.812Z,16.63
2023-02-28T10:21:52.069Z,17.67
2023-02-28T10:24:32.713Z,12.52
2023-02-28T10:27:15.093Z,14.43
2023-02-28T10:29:47.427Z,14.95
2023-02-28T10:32:21.233Z,15.75
2023-02-28T10:34:54.637Z,15.57
2023-02-28T10:37:23.816Z,15.27
2023-02-28T10:39:52.942Z,17.27
2023-02-28T10:42:27.352Z,17.02
2023-02-28T10:45:14.302Z,15.00
2023-02-28T10:47:57.525Z,15.27
2023-02-28T10:50:44.222Z,15.05
2023-02-28T10:53:57.316Z,19.25
2023-02-28T10:56:27.421Z,17.73
2023-02-28T10:58:59.382Z,20.15
2023-02-28T11:01:44.471Z,21.10
2023-02-28T11:04:36.840Z,21.80
2023-02-28T11:07:09.076Z,20.55
2023-02-28T11:09:42.055Z,19.50
2023-02-28T11:12:24.086Z,19.58
2023-02-28T11:14:56.958Z,19.83
2023-02-28T11:17:29.116Z,20.23
2023-02-28T11:20:04.427Z,18.42
2023-02-28T11:22:38.977Z,21.73
2023-02-28T11:25:18.556Z,19.38
2023-02-28T11:27:52.849Z,19.88
2023-02-28T11:30:36.180Z,21.52
2023-02-28T11:33:28.352Z,19.48
2023-02-28T11:36:03.946Z,19.42
2023-02-28T11:38:37.840Z,19.80
2023-02-28T11:41:51.690Z,19.77
2023-02-28T11:44:35.769Z,21.50
2023-02-28T11:47:13.966Z,19.92
2023-02-28T11:49:54.773Z,20.38
2023-02-28T11:52:42.332Z,19.83
2023-02-28T11:55:21.307Z,19.00
2023-02-28T11:58:26.932Z,19.83
2023-02-28T12:01:15.825Z,20.45
2023-02-28T12:04:05.346Z,19.35
2023-02-28T12:06:42.506Z,21.05
2023-02-28T12:09:32.178Z,21.63
2023-02-28T12:12:11.575Z,21.73
2023-02-28T12:15:06.892Z,23.83
2023-02-28T12:17:53.423Z,24.05
2023-02-28T12:20:31.900Z,26.05
2023-02-28T12:23:24.041Z,27.42
2023-02-28T12:26:07.436Z,27.40
2023-02-28T12:28:40.136Z,28.30
2023-02-28T12:31:16.438Z,27.00
2023-02-28T12:33:50.242Z,27.58
2023-02-28T12:36:23.109Z,25.67
2023-02-28T12:39:00.398Z,26.58
2023-02-28T12:41:39.610Z,26.42
2023-02-28T12:44:18.647Z,24.77
2023-02-28T12:46:52.654Z,26.35
2023-02-28T12:49:28.441Z,25.65
2023-02-28T12:51:57.632Z,25.77
2023-02-28T12:54:33.916Z,24.48
2023-02-28T12:57:15.365Z,24.65
2023-02-28T12:59:50.854Z,25.20
2023-02-28T13:03:00.050Z,23.70
2023-02-28T13:05:56.929Z,22.52
2023-02-28T13:08:55.986Z,23.02
2023-02-28T13:11:33.391Z,22.38
2023-02-28T13:17:05.751Z,23.02
2023-02-28T13:19:37.867Z,20.15
2023-02-28T13:22:17.720Z,19.35
2023-02-28T13:24:52.448Z,18.35
2023-02-28T13:27:37.952Z,19.35
2023-02-28T13:31:05.060Z,20.05
2023-02-28T13:33:35.265Z,19.58
2023-02-28T13:36:27.881Z,20.17
2023-02-28T13:39:02.574Z,18.80
2023-02-28T13:41:49.342Z,18.05
2023-02-28T13:44:24.267Z,18.17
2023-02-28T13:47:29.881Z,17.02
2023-02-28T13:50:22.732Z,16.50
2023-02-28T13:53:15.397Z,16.98
2023-02-28T13:55:52.320Z,16.92
2023-02-28T13:58:40.499Z,16.58
2023-02-28T14:01:33.880Z,15.65
2023-02-28T14:04:38.935Z,16.65
2023-02-28T14:07:10.331Z,16.55
2023-02-28T14:09:43.127Z,15.85
2023-02-28T14:13:02.870Z,16.15
2023-02-28T14:18:33.020Z,12.57
2023-02-28T14:21:26.355Z,11.75
2023-02-28T14:24:26.322Z,10.70
2023-02-28T14:27:14.185Z,10.13
2023-02-28T14:30:43.237Z,9.50
2023-02-28T14:33:59.636Z,8.50
2023-02-28T14:36:37.373Z,7.10
2023-02-28T14:39:09.950Z,7.45
2023-02-28T14:41:41.517Z,8.25
2023-02-28T14:44:20.672Z,8.00
2023-02-28T14:46:54.310Z,9.13
2023-02-28T14:49:30.618Z,10.20
2023-02-28T14:52:16.984Z,10.63
2023-02-28T14:54:46.997Z,10.98
2023-02-28T14:57:25.928Z,10.95
2023-02-28T15:00:11.501Z,9.95
2023-02-28T15:02:42.487Z,12.63
2023-02-28T15:05:31.120Z,14.07
2023-02-28T15:08:13.443Z,13.50
2023-02-28T15:10:45.177Z,14.68
2023-02-28T15:13:17.446Z,14.40
2023-02-28T15:16:02.707Z,14.60
2023-02-28T15:18:45.412Z,14.50
2023-02-28T15:21:19.273Z,13.90
2023-02-28T15:23:54.688Z,14.63
2023-02-28T15:26:29.304Z,13.88
2023-02-28T15:29:03.664Z,14.75
2023-02-28T15:31:56.487Z,13.73
2023-02-28T15:34:42.270Z,13.32
2023-02-28T15:37:32.694Z,14.73
2023-02-28T15:40:17.541Z,13.15
2023-02-28T15:43:02.155Z,14.73
2023-02-28T15:45:46.682Z,14.98
2023-02-28T15:48:22.671Z,14.88
2023-02-28T15:50:55.015Z,14.75
2023-02-28T15:53:28.358Z,14.95
2023-02-28T15:56:04.204Z,15.85
2023-02-28T15:58:35.037Z,14.95
2023-02-28T16:01:18.405Z,14.75
2023-02-28T16:03:50.877Z,14.23
2023-02-28T16:06:40.312Z,14.85
2023-02-28T16:09:14.284Z,15.95
2023-02-28T16:11:50.336Z,15.57
2023-02-28T16:14:24.009Z,15.07
2023-02-28T16:16:55.720Z,14.43
2023-02-28T16:19:25.551Z,14.85
2023-02-28T16:21:54.636Z,15.30
2023-02-28T16:24:23.619Z,14.63
2023-02-28T16:26:57.545Z,15.20
2023-02-28T16:29:30.926Z,15.02
2023-02-28T16:32:00.947Z,14.50
2023-02-28T16:34:29.970Z,15.25
2023-02-28T16:36:59.585Z,15.43
2023-02-28T16:39:28.659Z,14.95
2023-02-28T16:42:00.004Z,15.32
2023-02-28T16:44:32.075Z,14.50
2023-02-28T16:47:02.741Z,14.05
2023-02-28T16:49:31.935Z,14.95
2023-02-28T16:52:00.983Z,13.60
2023-02-28T16:54:29.975Z,14.23
2023-02-28T16:57:01.282Z,14.23
2023-02-28T16:59:31.717Z,17.17
2023-02-28T17:02:01.138Z,25.08
2023-02-28T17:04:30.754Z,36.42
2023-02-28T17:07:00.128Z,44.25
2023-02-28T17:09:40.206Z,40.05
2023-02-28T17:12:13.133Z,32.42
2023-02-28T17:14:42.382Z,17.60
2023-02-28T17:17:17.840Z,29.27
2023-02-28T17:19:53.306Z,20.95
2023-02-28T17:22:22.622Z,18.90
2023-02-28T17:24:51.658Z,18.05
2023-02-28T17:27:22.083Z,16.88
2023-02-28T17:29:51.205Z,17.13
2023-02-28T17:32:20.349Z,15.50
2023-02-28T17:34:49.615Z,14.52
2023-02-28T17:37:18.694Z,14.48
2023-02-28T17:39:48.072Z,14.05
2023-02-28T17:42:17.253Z,14.18
2023-02-28T17:44:53.107Z,14.57
2023-02-28T17:47:22.226Z,15.43
2023-02-28T17:49:51.564Z,15.52
2023-02-28T17:52:22.271Z,15.60
2023-02-28T17:54:54.109Z,14.57
2023-02-28T17:57:23.505Z,14.85
2023-02-28T17:59:53.918Z,14.00
2023-02-28T18:02:23.103Z,14.90
2023-02-28T18:04:52.149Z,14.98
2023-02-28T18:07:25.212Z,14.88
2023-02-28T18:09:54.651Z,14.02
2023-02-28T18:12:23.726Z,14.32
2023-02-28T18:14:54.376Z,13.85
2023-02-28T18:17:23.437Z,14.88
2023-02-28T18:19:52.505Z,16.55
2023-02-28T18:22:21.581Z,16.27
2023-02-28T18:24:50.937Z,16.15
2023-02-28T18:27:20.055Z,18.08
2023-02-28T18:29:51.046Z,16.95
2023-02-28T18:32:21.574Z,16.30
2023-02-28T18:34:50.916Z,16.38
2023-02-28T18:37:20.858Z,14.68
2023-02-28T18:39:49.952Z,14.93
2023-02-28T18:42:18.996Z,15.45
2023-02-28T18:44:48.043Z,14.80
2023-02-28T18:47:17.863Z,14.30
2023-02-28T18:49:48.665Z,15.20
2023-02-28T18:52:21.408Z,15.35
2023-02-28T18:54:50.815Z,15.27
2023-02-28T18:57:19.822Z,15.02
2023-02-28T18:59:49.106Z,15.93
2023-02-28T19:02:18.344Z,18.05
2023-02-28T19:04:48.774Z,19.20
2023-02-28T19:07:17.859Z,19.83
2023-02-28T19:09:47.033Z,19.20
2023-02-28T19:12:17.581Z,19.73
2023-02-28T19:14:47.437Z,19.77
2023-02-28T19:17:16.689Z,21.42
2023-02-28T19:19:45.684Z,23.98
2023-02-28T19:22:16.249Z,21.80
2023-02-28T19:24:45.410Z,21.35
2023-02-28T19:27:14.630Z,19.73
2023-02-28T19:29:44.044Z,21.33
2023-02-28T19:32:13.258Z,22.27
2023-02-28T19:34:43.053Z,23.48
2023-02-28T19:37:13.872Z,21.77
2023-02-28T19:39:47.046Z,19.42
2023-02-28T19:42:19.223Z,19.05
2023-02-28T19:44:49.738Z,18.77
2023-02-28T19:47:27.445Z,21.65
2023-02-28T19:49:58.968Z,19.63
2023-02-28T19:52:28.792Z,21.63
2023-02-28T19:55:00.742Z,21.63
2023-02-28T19:57:30.070Z,24.65
2023-02-28T19:59:59.404Z,22.60
2023-02-28T20:02:31.566Z,26.33
2023-02-28T20:05:01.558Z,25.50
2023-02-28T20:07:32.070Z,23.33
2023-02-28T20:10:03.626Z,23.90
2023-02-28T20:12:32.730Z,24.67
2023-02-28T20:15:02.608Z,24.15
2023-02-28T20:17:31.883Z,24.30
2023-02-28T20:20:01.881Z,23.45
2023-02-28T20:22:31.246Z,22.98
2023-02-28T20:25:01.068Z,24.33
2023-02-28T20:27:33.891Z,21.83
2023-02-28T20:30:02.969Z,22.77
2023-02-28T20:32:33.263Z,20.95
2023-02-28T20:35:02.438Z,21.85
2023-02-28T20:37:31.698Z,21.92
2023-02-28T20:40:01.260Z,22.02
2023-02-28T20:42:31.918Z,22.52
2023-02-28T20:45:01.700Z,23.08
2023-02-28T20:47:33.712Z,24.42
2023-02-28T20:50:02.739Z,22.65
2023-02-28T20:52:32.544Z,25.48
2023-02-28T20:55:03.504Z,28.02
2023-02-28T20:57:34.084Z,27.90
2023-02-28T21:00:04.044Z,26.55
2023-02-28T21:02:35.849Z,25.08
2023-02-28T21:05:05.667Z,23.17
2023-02-28T21:07:35.523Z,22.77
2023-02-28T21:10:05.857Z,21.67
2023-02-28T21:12:36.906Z,22.83
2023-02-28T21:15:08.006Z,23.58
2023-02-28T21:17:37.782Z,22.67
2023-02-28T21:20:08.127Z,22.25
2023-02-28T21:22:37.250Z,22.20
2023-02-28T21:25:09.804Z,22.85
2023-02-28T21:27:40.789Z,21.52
2023-02-28T21:30:12.280Z,20.65
2023-02-28T21:32:41.376Z,20.73
2023-02-28T21:35:11.433Z,20.52
2023-02-28T21:37:40.558Z,20.90
2023-02-28T21:40:11.407Z,22.77
2023-02-28T21:42:42.089Z,23.40
2023-02-28T21:45:12.112Z,23.88
2023-02-28T21:47:41.284Z,23.83
2023-02-28T21:50:15.072Z,22.83
2023-02-28T21:52:45.104Z,25.55
2023-02-28T21:55:14.367Z,24.63
2023-02-28T21:57:44.938Z,24.83
2023-02-28T22:00:17.562Z,24.52
2023-02-28T22:02:46.637Z,23.63
2023-02-28T22:05:17.602Z,26.10
2023-02-28T22:07:46.705Z,24.67
2023-02-28T22:10:15.939Z,25.02
2023-02-28T22:12:46.473Z,26.83
2023-02-28T22:15:15.610Z,25.70
2023-02-28T22:17:45.263Z,27.58
2023-02-28T22:20:14.782Z,26.80
2023-02-28T22:22:44.176Z,26.20
2023-02-28T22:25:13.269Z,25.70
2023-02-28T22:27:42.354Z,24.85
2023-02-28T22:30:14.056Z,25.20
2023-02-28T22:32:43.061Z,26.38
2023-02-28T22:35:12.065Z,25.17
2023-02-28T22:37:41.208Z,23.73
2023-02-28T22:40:12.342Z,23.33
2023-02-28T22:42:41.381Z,24.83
2023-02-28T22:45:13.528Z,24.50
2023-02-28T22:47:42.583Z,25.42
2023-02-28T22:50:13.504Z,23.75
2023-02-28T22:52:42.949Z,23.17
2023-02-28T22:55:12.597Z,25.10
2023-02-28T22:57:41.645Z,24.25
2023-02-28T23:00:15.542Z,24.33
2023-02-28T23:02:48.418Z,24.95
2023-02-28T23:05:17.710Z,26.85
2023-02-28T23:07:49.526Z,25.67
2023-02-28T23:10:19.516Z,24.75
2023-02-28T23:12:54.555Z,24.90
2023-02-28T23:15:25.216Z,25.45
2023-02-28T23:17:54.635Z,24.88
2023-02-28T23:20:25.650Z,24.67
2023-02-28T23:22:55.515Z,25.30
2023-02-28T23:25:24.618Z,24.52
2023-02-28T23:27:54.188Z,24.85
2023-02-28T23:30:24.697Z,25.35
2023-02-28T23:32:53.937Z,24.98
2023-02-28T23:35:23.134Z,26.58
2023-02-28T23:37:52.231Z,25.00
2023-02-28T23:40:22.381Z,26.90
2023-02-28T23:42:55.083Z,24.08
2023-02-28T23:45:31.947Z,26.17
2023-02-28T23:48:01.244Z,24.52
2023-02-28T23:50:30.250Z,25.20
2023-02-28T23:52:59.251Z,24.40
2023-02-28T23:55:28.315Z,23.58
2023-02-28T23:57:57.330Z,25.63
